Time;durP1;ratioP1;P1;durP2;ratioP2;P2;SDS_P1;SDS_P2;PMS_P1;PMS_P2;Temp;Humidity;BMP_temperature;BMP_pressure;BME280_temperature;BME280_humidity;BME280_pressure;Samples;Min_cycle;Max_cycle;Signal;HPM_P1;HPM_P2
2024/02/13 00:01:56;;;;;;;;;;;;;;;;;;5136913;27;19907;-74
2024/02/13 00:04:22;;;;;;;;;;;;;;;;;;5155406;27;19919;-74
2024/02/13 00:06:48;;;;;;;;;;;;;;;;;;5155055;27;19908;-74
2024/02/13 00:09:14;;;;;;;;;;;;;;;;;;5155618;27;20036;-74
2024/02/13 00:11:40;;;;;;;;;;;;;;;;;;5155407;27;19907;-73
2024/02/13 00:14:07;;;;;;;;;;;;;;;;;;5155029;27;19997;-73
2024/02/13 00:16:37;;;;;;;;;;;;;;;;;;5155368;27;20402;-73
2024/02/13 00:19:03;;;;;;;;;;;;;;;;;;5155311;27;19960;-73
2024/02/13 00:21:29;;;;;;;;;;;;;;;;;;5154849;27;19911;-73
2024/02/13 00:23:56;;;;;;;;;;;;;;;;;;5155184;27;19914;-74
2024/02/13 00:26:23;;;;;;;;;;;;;;;;;;5157288;27;19907;-73
2024/02/13 00:28:49;;;;;;;;;;;;;;;;;;5159200;27;20002;-74
2024/02/13 00:31:15;;;;;;;;;;;;;;;;;;5159437;27;19942;-75
2024/02/13 00:33:41;;;;;;;;;;;;;;;;;;5159404;27;19914;-74
2024/02/13 00:36:07;;;;;;;;;;;;;;;;;;5158840;27;19911;-74
2024/02/13 00:38:33;;;;;;;;;;;;;;;;;;5159203;27;20375;-73
2024/02/13 00:41:04;;;;;;;;;;;;;;;;;;5140640;27;20339;-74
2024/02/13 00:43:30;;;;;;;;;;;;;;;;;;5158777;27;19911;-74
2024/02/13 00:45:57;;;;;;;;;;;;;;;;;;5159059;27;19915;-74
2024/02/13 00:48:23;;;;;;;;;;;;;;;;;;5159052;27;19907;-74
2024/02/13 00:50:49;;;;;;;;;;;;;;;;;;5159046;27;20366;-74
2024/02/13 00:53:15;;;;;;;;;;;;;;;;;;5159434;27;19908;-74
2024/02/13 00:55:42;;;;;;;;;;;;;;;;;;5158534;27;20363;-74
2024/02/13 00:58:08;;;;;;;;;;;;;;;;;;5158872;27;20252;-74
2024/02/13 01:00:34;;;;;;;;;;;;;;;;;;5158811;27;20006;-74
2024/02/13 01:03:01;;;;;;;;;;;;;;;;;;5158696;27;19908;-74
2024/02/13 01:05:30;;;;;;;;;;;;;;;;;;5158530;27;19934;-74
2024/02/13 01:07:56;;;;;;;;;;;;;;;;;;5158752;27;19911;-74
2024/02/13 01:10:22;;;;;;;;;;;;;;;;;;5158583;27;19906;-74
2024/02/13 01:12:50;;;;;;;;;;;;;;;;;;5158558;27;20017;-74
2024/02/13 01:15:16;;;;;;;;;;;;;;;;;;5158466;27;19950;-74
2024/02/13 01:17:42;;;;;;;;;;;;;;;;;;5158271;27;19937;-74
2024/02/13 01:20:10;;;;;;;;;;;;;;;;;;5158533;27;19907;-74
2024/02/13 01:22:36;;;;;;;;;;;;;;;;;;5158783;27;19907;-74
2024/02/13 01:25:05;;;;;;;;;;;;;;;;;;5157836;27;19916;-74
2024/02/13 01:27:30;;;;;;;;;;;;;;;;;;5158338;27;20430;-74
2024/02/13 01:29:57;;;;;;;;;;;;;;;;;;5158468;27;19965;-74
2024/02/13 01:32:24;;;;;;;;;;;;;;;;;;5157824;27;19911;-74
2024/02/13 01:34:50;;;;;;;;;;;;;;;;;;5158453;27;19914;-74
2024/02/13 01:37:16;;;;;;;;;;;;;;;;;;5157651;27;19907;-74
2024/02/13 01:39:42;;;;;;;;;;;;;;;;;;5139100;27;19907;-74
2024/02/13 01:42:11;;;;;;;;;;;;;;;;;;5158045;27;19953;-75
2024/02/13 01:44:37;;;;;;;;;;;;;;;;;;5157887;27;19967;-74
2024/02/13 01:47:03;;;;;;;;;;;;;;;;;;5157568;27;20002;-74
2024/02/13 01:49:29;;;;;;;;;;;;;;;;;;5157955;27;20392;-74
2024/02/13 01:51:55;;;;;;;;;;;;;;;;;;5157379;27;19914;-74
2024/02/13 01:54:23;;;;;;;;;;;;;;;;;;5157777;27;20278;-74
2024/02/13 01:56:49;;;;;;;;;;;;;;;;;;5158041;27;19956;-74
2024/02/13 01:59:15;;;;;;;;;;;;;;;;;;5157323;27;19911;-74
2024/02/13 02:01:42;;;;;;;;;;;;;;;;;;5157689;27;19908;-74
2024/02/13 02:04:09;;;;;;;;;;;;;;;;;;5138787;27;19920;-74
2024/02/13 02:06:35;;;;;;;;;;;;;;;;;;5157189;27;19918;-74
2024/02/13 02:09:01;;;;;;;;;;;;;;;;;;5157485;27;19907;-75
2024/02/13 02:11:27;;;;;;;;;;;;;;;;;;5157459;27;20003;-74
2024/02/13 02:13:53;;;;;;;;;;;;;;;;;;5157032;27;19907;-74
2024/02/13 02:16:18;;;;;;;;;;;;;;;;;;5157377;27;19918;-74
2024/02/13 02:18:44;;;;;;;;;;;;;;;;;;5157500;27;19908;-74
2024/02/13 02:21:11;;;;;;;;;;;;;;;;;;5156885;27;20389;-74
2024/02/13 02:23:37;;;;;;;;;;;;;;;;;;5157680;27;19990;-74
2024/02/13 02:26:03;;;;;;;;;;;;;;;;;;5157117;27;20018;-74
2024/02/13 02:28:29;;;;;;;;;;;;;;;;;;5156783;27;19911;-74
2024/02/13 02:30:55;;;;;;;;;;;;;;;;;;5157064;27;20002;-74
2024/02/13 02:33:21;;;;;;;;;;;;;;;;;;5157160;27;19907;-74
2024/02/13 02:35:48;;;;;;;;;;;;;;;;;;5156538;27;19911;-74
2024/02/13 02:38:14;;;;;;;;;;;;;;;;;;5156938;27;19907;-74
2024/02/13 02:40:40;;;;;;;;;;;;;;;;;;5157081;27;19914;-74
2024/02/13 02:43:06;;;;;;;;;;;;;;;;;;5156379;27;19908;-74
2024/02/13 02:45:32;;;;;;;;;;;;;;;;;;5156817;27;19962;-74
2024/02/13 02:47:58;;;;;;;;;;;;;;;;;;5156121;27;19907;-74
2024/02/13 02:50:24;;;;;;;;;;;;;;;;;;5156183;27;19979;-74
2024/02/13 02:52:51;;;;;;;;;;;;;;;;;;5156688;27;19907;-74
2024/02/13 02:55:21;;;;;;;;;;;;;;;;;;5156175;27;19967;-74
2024/02/13 02:57:47;;;;;;;;;;;;;;;;;;5156543;27;19952;-74
2024/02/13 03:00:14;;;;;;;;;;;;;;;;;;5156536;27;19908;-74
2024/02/13 03:02:40;;;;;;;;;;;;;;;;;;5137525;27;20375;-74
2024/02/13 03:05:06;;;;;;;;;;;;;;;;;;5156172;27;20405;-74
2024/02/13 03:07:33;;;;;;;;;;;;;;;;;;5137798;27;19907;-74
2024/02/13 03:09:59;;;;;;;;;;;;;;;;;;5155861;27;19911;-74
2024/02/13 03:12:25;;;;;;;;;;;;;;;;;;5156260;27;19914;-74
2024/02/13 03:14:51;;;;;;;;;;;;;;;;;;5156197;27;19907;-74
2024/02/13 03:17:17;;;;;;;;;;;;;;;;;;5155960;27;20325;-74
2024/02/13 03:19:43;;;;;;;;;;;;;;;;;;5156167;27;19907;-74
2024/02/13 03:22:09;;;;;;;;;;;;;;;;;;5156068;27;19977;-74
2024/02/13 03:24:35;;;;;;;;;;;;;;;;;;5155564;27;19964;-74
2024/02/13 03:27:01;;;;;;;;;;;;;;;;;;5155988;27;19911;-74
2024/02/13 03:29:27;;;;;;;;;;;;;;;;;;5156182;27;19914;-74
2024/02/13 03:31:53;;;;;;;;;;;;;;;;;;5155635;27;19994;-74
2024/02/13 03:34:19;;;;;;;;;;;;;;;;;;5155974;27;20359;-74
2024/02/13 03:36:44;;;;;;;;;;;;;;;;;;5156043;27;20378;-74
2024/02/13 03:39:11;;;;;;;;;;;;;;;;;;5155405;27;19914;-74
2024/02/13 03:41:37;;;;;;;;;;;;;;;;;;5155733;27;19907;-74
2024/02/13 03:44:05;;;;;;;;;;;;;;;;;;5156266;27;20266;-74
2024/02/13 03:46:31;;;;;;;;;;;;;;;;;;5155392;27;20002;-74
2024/02/13 03:48:57;;;;;;;;;;;;;;;;;;5155681;27;19951;-74
2024/02/13 03:51:23;;;;;;;;;;;;;;;;;;5155213;27;19907;-74
2024/02/13 03:53:49;;;;;;;;;;;;;;;;;;5137124;27;19918;-74
2024/02/13 03:56:15;;;;;;;;;;;;;;;;;;5155589;27;20017;-74
2024/02/13 03:58:41;;;;;;;;;;;;;;;;;;5155200;27;19907;-74
2024/02/13 04:01:08;;;;;;;;;;;;;;;;;;5155358;27;19994;-74
2024/02/13 04:03:36;;;;;;;;;;;;;;;;;;5155237;27;19907;-74
2024/02/13 04:06:02;;;;;;;;;;;;;;;;;;5155242;27;19939;-74
2024/02/13 04:08:28;;;;;;;;;;;;;;;;;;5155482;27;20137;-74
2024/02/13 04:10:54;;;;;;;;;;;;;;;;;;5155428;27;19907;-74
2024/02/13 04:13:20;;;;;;;;;;;;;;;;;;5154915;27;19914;-74
2024/02/13 04:15:47;;;;;;;;;;;;;;;;;;5155347;27;19914;-74
2024/02/13 04:18:14;;;;;;;;;;;;;;;;;;5155340;27;20001;-74
2024/02/13 04:20:40;;;;;;;;;;;;;;;;;;5154947;27;19907;-74
2024/02/13 04:23:06;;;;;;;;;;;;;;;;;;5155362;27;19907;-74
2024/02/13 04:25:32;;;;;;;;;;;;;;;;;;5155277;27;19923;-74
2024/02/13 04:27:58;;;;;;;;;;;;;;;;;;5155016;27;20007;-74
2024/02/13 04:30:24;;;;;;;;;;;;;;;;;;5155204;27;19918;-74
2024/02/13 04:32:50;;;;;;;;;;;;;;;;;;5155221;27;19950;-74
2024/02/13 04:35:17;;;;;;;;;;;;;;;;;;5154891;27;20355;-74
2024/02/13 04:37:43;;;;;;;;;;;;;;;;;;5155306;27;20363;-75
2024/02/13 04:40:09;;;;;;;;;;;;;;;;;;5155166;27;19911;-75
2024/02/13 04:42:35;;;;;;;;;;;;;;;;;;5154714;27;19942;-75
2024/02/13 04:45:01;;;;;;;;;;;;;;;;;;5155104;27;19956;-75
2024/02/13 04:47:30;;;;;;;;;;;;;;;;;;5136687;27;19994;-73
2024/02/13 04:49:56;;;;;;;;;;;;;;;;;;5154748;27;19907;-74
2024/02/13 04:52:22;;;;;;;;;;;;;;;;;;5154955;27;19908;-74
2024/02/13 04:54:48;;;;;;;;;;;;;;;;;;5154627;27;19907;-74
2024/02/13 04:57:14;;;;;;;;;;;;;;;;;;5136442;27;20392;-74
2024/02/13 04:59:47;;;;;;;;;;;;;;;;;;5154988;27;19984;-74
2024/02/13 05:02:14;;;;;;;;;;;;;;;;;;5154862;27;20371;-74
2024/02/13 05:07:26;;;;;;;;;;;;;;;;;;5154960;27;19914;-74
2024/02/13 05:09:53;;;;;;;;;;;;;;;;;;5154499;27;19938;-74
2024/02/13 05:12:18;;;;;;;;;;;;;;;;;;5156655;27;19984;-74
2024/02/13 05:14:44;;;;;;;;;;;;;;;;;;5158511;27;20363;-74
2024/02/13 05:17:11;;;;;;;;;;;;;;;;;;5158281;27;19959;-74
2024/02/13 05:19:38;;;;;;;;;;;;;;;;;;5158549;27;19950;-74
2024/02/13 05:22:05;;;;;;;;;;;;;;;;;;5139949;27;19958;-74
2024/02/13 05:24:31;;;;;;;;;;;;;;;;;;5157935;27;19955;-74
2024/02/13 05:26:57;;;;;;;;;;;;;;;;;;5158569;27;19919;-73
2024/02/13 05:29:24;;;;;;;;;;;;;;;;;;5158602;27;19914;-74
2024/02/13 05:31:51;;;;;;;;;;;;;;;;;;5157840;27;19907;-74
2024/02/13 05:34:17;;;;;;;;;;;;;;;;;;5158280;27;19914;-74
2024/02/13 05:36:43;;;;;;;;;;;;;;;;;;5158074;27;19914;-74
2024/02/13 05:39:09;;;;;;;;;;;;;;;;;;5157691;27;19964;-74
2024/02/13 05:41:35;;;;;;;;;;;;;;;;;;5155555;27;19907;-74
2024/02/13 05:44:02;;;;;;;;;;;;;;;;;;5135644;27;19907;-74
2024/02/13 05:46:28;;;;;;;;;;;;;;;;;;5136826;27;20390;-74
2024/02/13 05:48:56;;;;;;;;;;;;;;;;;;5137617;27;20006;-74
2024/02/13 05:51:22;;;;;;;;;;;;;;;;;;5136777;27;19960;-74
2024/02/13 05:53:48;;;;;;;;;;;;;;;;;;5137206;27;20394;-74
2024/02/13 05:56:14;;;;;;;;;;;;;;;;;;5137366;27;19908;-74
2024/02/13 05:58:40;;;;;;;;;;;;;;;;;;5136639;27;19960;-74
2024/02/13 06:01:09;;;;;;;;;;;;;;;;;;5136964;27;19908;-74
2024/02/13 06:03:35;;;;;;;;;;;;;;;;;;5137131;27;19952;-73
2024/02/13 06:06:01;;;;;;;;;;;;;;;;;;5117972;27;19920;-74
2024/02/13 06:08:27;;;;;;;;;;;;;;;;;;5136960;27;19918;-75
2024/02/13 06:10:53;;;;;;;;;;;;;;;;;;5137130;27;19908;-75
2024/02/13 06:13:19;;;;;;;;;;;;;;;;;;5136268;27;20367;-74
2024/02/13 06:15:46;;;;;;;;;;;;;;;;;;5136977;27;20383;-73
2024/02/13 06:18:12;;;;;;;;;;;;;;;;;;5133738;27;19911;-71
2024/02/13 06:20:38;;;;;;;;;;;;;;;;;;5134590;27;19914;-75
2024/02/13 06:23:04;;;;;;;;;;;;;;;;;;5139037;27;19912;-74
2024/02/13 06:25:30;;;;;;;;;;;;;;;;;;5119224;27;19919;-73
2024/02/13 06:27:56;;;;;;;;;;;;;;;;;;5144880;27;20391;-70
2024/02/13 06:30:22;;;;;;;;;;;;;;;;;;5142346;27;19950;-71
2024/02/13 06:32:48;;;;;;;;;;;;;;;;;;5143557;27;20390;-67
2024/02/13 06:35:14;;;;;;;;;;;;;;;;;;5121697;27;19911;-69
2024/02/13 06:37:40;;;;;;;;;;;;;;;;;;5135462;27;19919;-69
2024/02/13 06:40:06;;;;;;;;;;;;;;;;;;5156245;27;19907;-69
2024/02/13 06:42:32;;;;;;;;;;;;;;;;;;5156507;27;19907;-70
2024/02/13 06:44:58;;;;;;;;;;;;;;;;;;5135986;27;19950;-69
2024/02/13 06:47:25;;;;;;;;;;;;;;;;;;5141794;27;19907;-68
2024/02/13 06:49:51;;;;;;;;;;;;;;;;;;5152962;27;20389;-68
2024/02/13 06:52:18;;;;;;;;;;;;;;;;;;5138023;27;19908;-69
2024/02/13 06:54:45;;;;;;;;;;;;;;;;;;5141212;27;19912;-69
2024/02/13 06:57:11;;;;;;;;;;;;;;;;;;5146407;27;19912;-68
2024/02/13 06:59:37;;;;;;;;;;;;;;;;;;5149686;27;19911;-69
2024/02/13 07:02:03;;;;;;;;;;;;;;;;;;5146202;27;19918;-69
2024/02/13 07:04:29;;;;;;;;;;;;;;;;;;5143656;27;19923;-69
2024/02/13 07:06:57;;;;;;;;;;;;;;;;;;5146216;27;19957;-69
2024/02/13 07:09:23;;;;;;;;;;;;;;;;;;5145134;27;20393;-70
2024/02/13 07:11:50;;;;;;;;;;;;;;;;;;5134592;27;19923;-69
2024/02/13 07:14:17;;;;;;;;;;;;;;;;;;5141367;27;20292;-69
2024/02/13 07:16:44;;;;;;;;;;;;;;;;;;5147971;27;20003;-71
2024/02/13 07:19:10;;;;;;;;;;;;;;;;;;5117682;27;19919;-70
2024/02/13 07:21:36;;;;;;;;;;;;;;;;;;5151225;27;20542;-69
2024/02/13 07:24:02;;;;;;;;;;;;;;;;;;5143781;27;20249;-69
2024/02/13 07:26:28;;;;;;;;;;;;;;;;;;5134516;27;20528;-69
2024/02/13 07:28:54;;;;;;;;;;;;;;;;;;5131115;27;19934;-68
2024/02/13 07:31:20;;;;;;;;;;;;;;;;;;5123202;27;19911;-68
2024/02/13 07:33:47;;;;;;;;;;;;;;;;;;5141443;27;19918;-69
2024/02/13 07:36:13;;;;;;;;;;;;;;;;;;5143668;27;19907;-69
2024/02/13 07:38:39;;;;;;;;;;;;;;;;;;5148476;27;19923;-69
2024/02/13 07:41:08;;;;;;;;;;;;;;;;;;5140955;27;20328;-69
2024/02/13 07:43:34;;;;;;;;;;;;;;;;;;5139053;27;19911;-69
2024/02/13 07:46:00;;;;;;;;;;;;;;;;;;5150806;27;19926;-69
2024/02/13 07:48:26;;;;;;;;;;;;;;;;;;5134735;27;19908;-70
2024/02/13 07:50:53;;;;;;;;;;;;;;;;;;5135642;27;20389;-70
2024/02/13 07:53:20;;;;;;;;;;;;;;;;;;5149582;27;19990;-70
2024/02/13 07:55:48;;;;;;;;;;;;;;;;;;5139388;27;19915;-69
2024/02/13 07:58:14;;;;;;;;;;;;;;;;;;5133681;27;19912;-69
2024/02/13 08:00:40;;;;;;;;;;;;;;;;;;5141035;27;19914;-72
2024/02/13 08:03:06;;;;;;;;;;;;;;;;;;5145077;27;19994;-69
2024/02/13 08:05:36;;;;;;;;;;;;;;;;;;5140541;27;19926;-69
2024/02/13 08:08:04;;;;;;;;;;;;;;;;;;5141736;27;19983;-69
2024/02/13 08:10:30;;;;;;;;;;;;;;;;;;5153417;27;19998;-70
2024/02/13 08:12:59;;;;;;;;;;;;;;;;;;5112372;27;19907;-70
2024/02/13 08:15:26;;;;;;;;;;;;;;;;;;5111059;27;19954;-70
2024/02/13 08:17:52;;;;;;;;;;;;;;;;;;5140563;27;19997;-70
2024/02/13 08:20:18;;;;;;;;;;;;;;;;;;5132993;27;20002;-70
2024/02/13 08:22:44;;;;;;;;;;;;;;;;;;5139994;27;19911;-71
2024/02/13 08:25:10;;;;;;;;;;;;;;;;;;5132888;27;19931;-71
2024/02/13 08:27:37;;;;;;;;;;;;;;;;;;5133841;27;19912;-70
2024/02/13 08:30:09;;;;;;;;;;;;;;;;;;5141514;27;20434;-70
2024/02/13 08:32:37;;;;;;;;;;;;;;;;;;5136371;27;19911;-71
2024/02/13 08:35:03;;;;;;;;;;;;;;;;;;5118865;28;20043;-71
2024/02/13 08:37:29;;;;;;;;;;;;;;;;;;5136204;27;20002;-71
2024/02/13 08:39:57;;;;;;;;;;;;;;;;;;5139071;27;20369;-69
2024/02/13 08:42:23;;;;;;;;;;;;;;;;;;5139006;27;19919;-70
2024/02/13 08:44:48;;;;;;;;;;;;;;;;;;5120241;28;20617;-70
2024/02/13 08:47:14;;;;;;;;;;;;;;;;;;5141410;27;19911;-71
2024/02/13 08:49:40;;;;;;;;;;;;;;;;;;5153582;27;19956;-69
2024/02/13 08:52:10;;;;;;;;;;;;;;;;;;5135287;27;19946;-68
2024/02/13 08:54:36;;;;;;;;;;;;;;;;;;5138908;27;19915;-71
2024/02/13 08:57:02;;;;;;;;;;;;;;;;;;5145286;27;19915;-70
2024/02/13 08:59:29;;;;;;;;;;;;;;;;;;5120705;27;19924;-70
2024/02/13 09:01:55;;;;;;;;;;;;;;;;;;5138906;27;20261;-71
2024/02/13 09:04:23;;;;;;;;;;;;;;;;;;5141718;27;19915;-68
2024/02/13 09:06:49;;;;;;;;;;;;;;;;;;5143519;27;19925;-70
2024/02/13 09:09:15;;;;;;;;;;;;;;;;;;5144401;27;19975;-69
2024/02/13 09:11:41;;;;;;;;;;;;;;;;;;5137226;27;20321;-72
2024/02/13 09:14:07;;;;;;;;;;;;;;;;;;5121549;27;19916;-76
2024/02/13 09:16:33;;;;;;;;;;;;;;;;;;5138335;27;19915;-75
2024/02/13 09:18:59;;;;;;;;;;;;;;;;;;5139133;27;19923;-74
2024/02/13 09:21:25;;;;;;;;;;;;;;;;;;5143631;27;19914;-75
2024/02/13 09:23:51;;;;;;;;;;;;;;;;;;5138597;27;20038;-75
2024/02/13 09:26:17;;;;;;;;;;;;;;;;;;5140982;27;19969;-74
2024/02/13 09:28:44;;;;;;;;;;;;;;;;;;5146456;27;19933;-74
2024/02/13 09:31:11;;;;;;;;;;;;;;;;;;5139329;27;19948;-76
2024/02/13 09:33:36;;;;;;;;;;;;;;;;;;5118432;27;19957;-75
2024/02/13 09:36:05;;;;;;;;;;;;;;;;;;5133322;27;19915;-75
2024/02/13 09:38:31;;;;;;;;;;;;;;;;;;5146297;27;19912;-74
2024/02/13 09:40:58;;;;;;;;;;;;;;;;;;5120653;27;19914;-74
2024/02/13 09:43:24;;;;;;;;;;;;;;;;;;5151398;27;19911;-76
2024/02/13 09:45:52;;;;;;;;;;;;;;;;;;5145182;27;20418;-76
2024/02/13 09:48:18;;;;;;;;;;;;;;;;;;5141468;27;19918;-75
2024/02/13 09:50:44;;;;;;;;;;;;;;;;;;5147179;27;19911;-76
2024/02/13 09:53:10;;;;;;;;;;;;;;;;;;5137841;27;19914;-76
2024/02/13 09:55:36;;;;;;;;;;;;;;;;;;5145115;27;19997;-76
2024/02/13 09:58:02;;;;;;;;;;;;;;;;;;5148134;27;19907;-76
2024/02/13 10:00:29;;;;;;;;;;;;;;;;;;5148631;27;19911;-77
2024/02/13 10:02:55;;;;;;;;;;;;;;;;;;5153611;27;19915;-77
2024/02/13 10:05:21;;;;;;;;;;;;;;;;;;5133891;27;20780;-71
2024/02/13 10:07:47;;;;;;;;;;;;;;;;;;5140912;27;20264;-74
2024/02/13 10:10:13;;;;;;;;;;;;;;;;;;5152037;27;20615;-76
2024/02/13 10:12:39;;;;;;;;;;;;;;;;;;5149756;27;20427;-76
2024/02/13 10:15:08;;;;;;;;;;;;;;;;;;5134173;27;19911;-75
2024/02/13 10:17:34;;;;;;;;;;;;;;;;;;5136775;27;20343;-75
2024/02/13 10:20:00;;;;;;;;;;;;;;;;;;5129058;27;19911;-75
2024/02/13 10:22:26;;;;;;;;;;;;;;;;;;5112998;27;20636;-77
2024/02/13 10:24:54;;;;;;;;;;;;;;;;;;5133800;27;19915;-75
2024/02/13 10:27:20;;;;;;;;;;;;;;;;;;5126859;27;19926;-75
2024/02/13 10:29:46;;;;;;;;;;;;;;;;;;5122547;27;19911;-74
2024/02/13 10:32:12;;;;;;;;;;;;;;;;;;4233849;27;10000562;-76
2024/02/13 10:34:38;;;;;;;;;;;;;;;;;;5111253;27;19920;-77
2024/02/13 10:37:05;;;;;;;;;;;;;;;;;;5095427;28;20317;-76
2024/02/13 10:39:31;;;;;;;;;;;;;;;;;;5126497;27;19947;-75
2024/02/13 10:41:58;;;;;;;;;;;;;;;;;;5110767;27;19962;-75
2024/02/13 10:44:25;;;;;;;;;;;;;;;;;;5106932;27;19971;-71
2024/02/13 10:46:51;;;;;;;;;;;;;;;;;;5091330;28;19927;-70
2024/02/13 10:49:17;;;;;;;;;;;;;;;;;;5119877;27;19922;-70
2024/02/13 10:51:43;;;;;;;;;;;;;;;;;;5126962;27;19911;-75
2024/02/13 10:54:09;;;;;;;;;;;;;;;;;;5121030;27;20014;-76
2024/02/13 10:56:35;;;;;;;;;;;;;;;;;;5123995;27;19944;-75
2024/02/13 10:59:01;;;;;;;;;;;;;;;;;;5133189;27;19911;-75
2024/02/13 11:01:27;;;;;;;;;;;;;;;;;;5132505;27;20385;-76
2024/02/13 11:03:55;;;;;;;;;;;;;;;;;;5112715;27;19942;-72
2024/02/13 11:06:21;;;;;;;;;;;;;;;;;;5114233;27;20007;-72
2024/02/13 11:08:47;;;;;;;;;;;;;;;;;;5132497;27;19908;-74
2024/02/13 11:11:13;;;;;;;;;;;;;;;;;;5132153;27;20422;-72
2024/02/13 11:13:39;;;;;;;;;;;;;;;;;;5126376;27;19951;-71
2024/02/13 11:16:05;;;;;;;;;;;;;;;;;;5113680;27;19965;-76
2024/02/13 11:18:34;;;;;;;;;;;;;;;;;;5121712;27;19923;-75
2024/02/13 11:21:01;;;;;;;;;;;;;;;;;;5132070;27;19912;-74
2024/02/13 11:23:26;;;;;;;;;;;;;;;;;;5121933;27;19972;-73
2024/02/13 11:25:53;;;;;;;;;;;;;;;;;;5092502;28;19916;-72
2024/02/13 11:28:19;;;;;;;;;;;;;;;;;;5120241;27;19923;-71
2024/02/13 11:30:45;;;;;;;;;;;;;;;;;;5114103;27;19916;-71
2024/02/13 11:33:11;;;;;;;;;;;;;;;;;;5119232;27;19964;-70
2024/02/13 11:35:39;;;;;;;;;;;;;;;;;;5120623;27;19912;-70
2024/02/13 11:38:05;;;;;;;;;;;;;;;;;;5120284;27;20031;-71
2024/02/13 11:40:33;;;;;;;;;;;;;;;;;;5119514;27;19928;-71
2024/02/13 11:43:01;;;;;;;;;;;;;;;;;;5108787;27;19919;-70
2024/02/13 11:45:28;;;;;;;;;;;;;;;;;;5113791;27;19947;-69
2024/02/13 11:47:54;;;;;;;;;;;;;;;;;;5109952;27;19911;-70
2024/02/13 11:50:21;;;;;;;;;;;;;;;;;;5111287;27;19954;-71
2024/02/13 11:52:48;;;;;;;;;;;;;;;;;;5108680;27;19911;-72
2024/02/13 11:55:14;;;;;;;;;;;;;;;;;;5108234;27;19912;-71
2024/02/13 11:57:40;;;;;;;;;;;;;;;;;;5107421;28;20002;-70
2024/02/13 12:00:12;;;;;;;;;;;;;;;;;;5114246;27;19916;-70
2024/02/13 12:02:38;;;;;;;;;;;;;;;;;;5122567;27;20353;-69
2024/02/13 12:05:04;;;;;;;;;;;;;;;;;;5122558;27;19980;-70
2024/02/13 12:07:30;;;;;;;;;;;;;;;;;;5110470;28;19958;-72
2024/02/13 12:09:56;;;;;;;;;;;;;;;;;;5112773;28;20383;-71
2024/02/13 12:12:24;;;;;;;;;;;;;;;;;;5128132;28;19935;-73
2024/02/13 12:14:50;;;;;;;;;;;;;;;;;;5120216;28;19912;-72
2024/02/13 12:17:16;;;;;;;;;;;;;;;;;;5116017;28;19919;-72
2024/02/13 12:19:42;;;;;;;;;;;;;;;;;;5114607;28;20556;-73
2024/02/13 12:22:08;;;;;;;;;;;;;;;;;;5127681;27;19934;-73
2024/02/13 12:24:34;;;;;;;;;;;;;;;;;;5123108;27;20023;-72
2024/02/13 12:27:01;;;;;;;;;;;;;;;;;;5121774;27;20010;-69
2024/02/13 12:29:27;;;;;;;;;;;;;;;;;;5118346;27;20015;-69
2024/02/13 12:31:53;;;;;;;;;;;;;;;;;;5121484;27;19998;-69
2024/02/13 12:34:21;;;;;;;;;;;;;;;;;;5090499;28;19919;-69
2024/02/13 12:36:49;;;;;;;;;;;;;;;;;;5115658;27;19912;-69
2024/02/13 12:39:20;;;;;;;;;;;;;;;;;;5117709;27;19955;-70
2024/02/13 12:41:46;;;;;;;;;;;;;;;;;;5109342;27;20002;-68
2024/02/13 12:44:13;;;;;;;;;;;;;;;;;;5125904;27;20011;-70
2024/02/13 12:46:39;;;;;;;;;;;;;;;;;;5111443;27;19920;-69
2024/02/13 12:49:05;;;;;;;;;;;;;;;;;;5127011;27;19969;-68
2024/02/13 12:51:31;;;;;;;;;;;;;;;;;;5122058;27;19942;-67
2024/02/13 12:54:00;;;;;;;;;;;;;;;;;;5111356;27;20459;-72
2024/02/13 12:56:26;;;;;;;;;;;;;;;;;;5131714;27;20005;-73
2024/02/13 12:58:53;;;;;;;;;;;;;;;;;;5132994;27;20009;-72
2024/02/13 13:01:23;;;;;;;;;;;;;;;;;;5133283;27;19915;-70
2024/02/13 13:03:49;;;;;;;;;;;;;;;;;;5135757;27;19942;-69
2024/02/13 13:06:18;;;;;;;;;;;;;;;;;;5136015;27;20330;-71
2024/02/13 13:08:46;;;;;;;;;;;;;;;;;;5125769;27;19911;-72
2024/02/13 13:11:12;;;;;;;;;;;;;;;;;;5120435;27;19922;-69
2024/02/13 13:13:38;;;;;;;;;;;;;;;;;;5117203;28;20373;-72
2024/02/13 13:16:05;;;;;;;;;;;;;;;;;;5116578;28;19915;-71
2024/02/13 13:18:31;;;;;;;;;;;;;;;;;;5119718;27;19991;-68
2024/02/13 13:20:57;;;;;;;;;;;;;;;;;;5133517;27;19954;-71
2024/02/13 13:23:24;;;;;;;;;;;;;;;;;;5115842;28;19915;-71
2024/02/13 13:25:52;;;;;;;;;;;;;;;;;;5126798;27;19919;-70
2024/02/13 13:28:18;;;;;;;;;;;;;;;;;;5135096;27;19991;-70
2024/02/13 13:30:46;;;;;;;;;;;;;;;;;;5121475;27;20342;-71
2024/02/13 13:33:14;;;;;;;;;;;;;;;;;;5104053;28;19968;-70
2024/02/13 13:35:41;;;;;;;;;;;;;;;;;;5126764;27;19911;-68
2024/02/13 13:38:07;;;;;;;;;;;;;;;;;;5115828;27;20380;-70
2024/02/13 13:40:37;;;;;;;;;;;;;;;;;;5127161;27;20302;-69
2024/02/13 13:43:18;;;;;;;;;;;;;;;;;;5100603;27;19961;-69
2024/02/13 13:48:12;;;;;;;;;;;;;;;;;;4478388;27;18387785;-68
2024/02/13 13:50:43;;;;;;;;;;;;;;;;;;5124192;28;19965;-67
2024/02/13 13:54:35;;;;;;;;;;;;;;;;;;5112061;27;19923;-68
2024/02/13 13:58:11;;;;;;;;;;;;;;;;;;5115210;27;20273;-71
2024/02/13 14:02:04;;;;;;;;;;;;;;;;;;5133422;27;20007;-74
2024/02/13 14:06:31;;;;;;;;;;;;;;;;;;5090988;27;19917;-72
2024/02/13 14:08:57;;;;;;;;;;;;;;;;;;5090515;28;20011;-73
2024/02/13 14:11:23;;;;;;;;;;;;;;;;;;5089918;28;19940;-72
2024/02/13 14:13:52;;;;;;;;;;;;;;;;;;5091035;28;19909;-73
2024/02/13 14:16:18;;;;;;;;;;;;;;;;;;5089807;28;20003;-72
2024/02/13 14:18:44;;;;;;;;;;;;;;;;;;5089292;28;19912;-72
2024/02/13 14:21:10;;;;;;;;;;;;;;;;;;5089040;28;20360;-73
2024/02/13 14:23:37;;;;;;;;;;;;;;;;;;5088923;28;20327;-73
2024/02/13 14:26:04;;;;;;;;;;;;;;;;;;5088948;28;19923;-72
2024/02/13 14:28:30;;;;;;;;;;;;;;;;;;5090902;28;19908;-73
2024/02/13 14:30:56;;;;;;;;;;;;;;;;;;5090878;28;19908;-72
2024/02/13 14:33:21;;;;;;;;;;;;;;;;;;5090370;28;19919;-73
2024/02/13 14:35:48;;;;;;;;;;;;;;;;;;5090708;28;19909;-73
2024/02/13 14:38:15;;;;;;;;;;;;;;;;;;5090544;28;19913;-72
2024/02/13 14:40:41;;;;;;;;;;;;;;;;;;5090225;28;19912;-74
2024/02/13 14:43:07;;;;;;;;;;;;;;;;;;5089108;28;19909;-73
2024/02/13 14:45:33;;;;;;;;;;;;;;;;;;5088547;28;20445;-74
2024/02/13 14:47:59;;;;;;;;;;;;;;;;;;5088525;28;19908;-71
2024/02/13 14:50:25;;;;;;;;;;;;;;;;;;5088457;28;19915;-72
2024/02/13 14:52:51;;;;;;;;;;;;;;;;;;5088039;28;20021;-72
2024/02/13 14:55:17;;;;;;;;;;;;;;;;;;5086977;28;20357;-73
2024/02/13 14:57:45;;;;;;;;;;;;;;;;;;5087992;28;20003;-73
2024/02/13 15:00:12;;;;;;;;;;;;;;;;;;5086049;28;19913;-72
2024/02/13 15:02:39;;;;;;;;;;;;;;;;;;5089082;28;20364;-74
2024/02/13 15:05:06;;;;;;;;;;;;;;;;;;5098726;28;19927;-72
2024/02/13 15:07:35;;;;;;;;;;;;;;;;;;5110196;28;20384;-71
2024/02/13 15:10:00;;;;;;;;;;;;;;;;;;5110065;28;19908;-72
2024/02/13 15:12:26;;;;;;;;;;;;;;;;;;5110272;28;19912;-72
2024/02/13 15:14:52;;;;;;;;;;;;;;;;;;5110003;28;19915;-72
2024/02/13 15:17:20;;;;;;;;;;;;;;;;;;5099692;28;19912;-71
2024/02/13 15:19:46;;;;;;;;;;;;;;;;;;5096920;28;19915;-71
2024/02/13 15:22:12;;;;;;;;;;;;;;;;;;5096159;28;19915;-73
2024/02/13 15:24:39;;;;;;;;;;;;;;;;;;5096598;28;19912;-72
2024/02/13 15:27:06;;;;;;;;;;;;;;;;;;5096610;28;20269;-72
2024/02/13 15:29:32;;;;;;;;;;;;;;;;;;5096172;28;19908;-72
2024/02/13 15:31:58;;;;;;;;;;;;;;;;;;5096439;28;19915;-72
2024/02/13 15:34:24;;;;;;;;;;;;;;;;;;5096382;28;20388;-72
2024/02/13 15:47:40;;;;;;;;;;;;;;;;;;5096226;28;19918;-72
2024/02/13 15:50:06;;;;;;;;;;;;;;;;;;5095952;28;20269;-71
2024/02/13 15:52:32;;;;;;;;;;;;;;;;;;5096259;28;19915;-72
2024/02/13 15:54:58;;;;;;;;;;;;;;;;;;5096021;28;19908;-73
2024/02/13 15:57:24;;;;;;;;;;;;;;;;;;5094212;28;19908;-73
2024/02/13 15:59:51;;;;;;;;;;;;;;;;;;5094837;28;19908;-73
2024/02/13 16:02:18;;;;;;;;;;;;;;;;;;5075787;28;19908;-73
2024/02/13 16:04:44;;;;;;;;;;;;;;;;;;5093254;28;20296;-73
2024/02/13 16:07:10;;;;;;;;;;;;;;;;;;5089048;28;19908;-72
2024/02/13 16:09:35;;;;;;;;;;;;;;;;;;5091767;28;19908;-73
2024/02/13 16:12:04;;;;;;;;;;;;;;;;;;5090216;28;19995;-74
2024/02/13 16:14:30;;;;;;;;;;;;;;;;;;5090364;28;20015;-72
2024/02/13 16:16:57;;;;;;;;;;;;;;;;;;5091208;28;19908;-72
2024/02/13 16:19:23;;;;;;;;;;;;;;;;;;5093162;28;19915;-73
2024/02/13 16:21:49;;;;;;;;;;;;;;;;;;5093045;28;19915;-73
2024/02/13 16:24:15;;;;;;;;;;;;;;;;;;5092887;28;19908;-72
2024/02/13 16:26:41;;;;;;;;;;;;;;;;;;5091138;28;20416;-72
2024/02/13 16:29:07;;;;;;;;;;;;;;;;;;5090376;28;19998;-73
2024/02/13 16:31:33;;;;;;;;;;;;;;;;;;5091113;28;19995;-73
2024/02/13 16:34:00;;;;;;;;;;;;;;;;;;5091931;28;19916;-73
2024/02/13 16:36:26;;;;;;;;;;;;;;;;;;5091621;28;19943;-73
2024/02/13 16:38:52;;;;;;;;;;;;;;;;;;5094555;28;19951;-73
2024/02/13 16:41:18;;;;;;;;;;;;;;;;;;5093007;28;20386;-73
2024/02/13 16:43:50;;;;;;;;;;;;;;;;;;5091764;28;19934;-73
2024/02/13 16:46:21;;;;;;;;;;;;;;;;;;5091439;28;19920;-72
2024/02/13 16:48:47;;;;;;;;;;;;;;;;;;5092196;28;19939;-72
2024/02/13 16:51:13;;;;;;;;;;;;;;;;;;5092711;28;19915;-72
2024/02/13 16:53:39;;;;;;;;;;;;;;;;;;5092505;28;19984;-72
2024/02/13 16:56:05;;;;;;;;;;;;;;;;;;5092803;28;19953;-72
2024/02/13 16:58:31;;;;;;;;;;;;;;;;;;5093462;28;19912;-72
2024/02/13 17:00:57;;;;;;;;;;;;;;;;;;5094305;28;19922;-72
2024/02/13 17:03:23;;;;;;;;;;;;;;;;;;5094491;28;19915;-72